Time;durP1;ratioP1;P1;durP2;ratioP2;P2;SDS_P1;SDS_P2;PMS_P1;PMS_P2;Temp;Humidity;BMP_temperature;BMP_pressure;BME280_temperature;BME280_humidity;BME280_pressure;Samples;Min_cycle;Max_cycle;Signal;HPM_P1;HPM_P2
2022/04/05 00:00:46;;;;;;;17.27;10.63;;;4.20;99.90;;;;;;5015017;28;20391;-91
2022/04/05 00:03:12;;;;;;;10.87;7.40;;;4.20;99.90;;;;;;5016290;28;20187;-90
2022/04/05 00:05:38;;;;;;;20.80;10.03;;;4.10;99.90;;;;;;5015481;28;20506;-90
2022/04/05 00:08:04;;;;;;;13.80;8.97;;;4.10;99.90;;;;;;5015211;28;20198;-90
2022/04/05 00:10:29;;;;;;;21.73;11.82;;;4.10;99.90;;;;;;5016160;28;20254;-90
2022/04/05 00:12:55;;;;;;;15.53;9.63;;;4.00;99.90;;;;;;5016513;28;20199;-89
2022/04/05 00:15:21;;;;;;;17.63;10.07;;;4.00;99.90;;;;;;5034000;28;20179;-90
2022/04/05 00:17:47;;;;;;;15.40;11.20;;;3.90;99.90;;;;;;5035583;28;20205;-90
2022/04/05 00:20:14;;;;;;;20.30;10.70;;;3.90;99.90;;;;;;5035616;28;20189;-90
2022/04/05 00:22:40;;;;;;;20.95;11.73;;;3.90;99.90;;;;;;5036139;28;20206;-90
2022/04/05 00:25:06;;;;;;;19.10;10.17;;;3.80;99.90;;;;;;5038799;28;20737;-90
2022/04/05 00:27:32;;;;;;;16.33;9.73;;;3.80;99.90;;;;;;5047134;28;20415;-90
2022/04/05 00:29:59;;;;;;;11.43;7.27;;;3.80;99.90;;;;;;5045629;28;20225;-90
2022/04/05 00:32:26;;;;;;;14.55;8.85;;;3.80;99.90;;;;;;5046181;28;20199;-89
2022/04/05 00:34:52;;;;;;;14.20;9.20;;;3.80;99.90;;;;;;5033494;28;20186;-90
2022/04/05 00:37:18;;;;;;;11.35;8.15;;;3.70;99.90;;;;;;5033229;28;20202;-90
2022/04/05 00:39:44;;;;;;;12.80;7.13;;;3.70;99.90;;;;;;5034161;28;20201;-89
2022/04/05 00:42:11;;;;;;;14.60;9.47;;;3.70;99.90;;;;;;5034201;28;20585;-88
2022/04/05 00:44:37;;;;;;;16.55;10.57;;;3.60;99.90;;;;;;5036610;28;20877;-89
2022/04/05 00:47:17;;;;;;;19.25;10.90;;;3.60;99.90;;;;;;5034168;28;20198;-90
2022/04/05 00:49:46;;;;;;;19.10;11.77;;;3.60;99.90;;;;;;5035428;28;20185;-90
2022/04/05 00:52:13;;;;;;;19.60;11.52;;;3.60;99.90;;;;;;5035484;28;20198;-91
2022/04/05 00:54:40;;;;;;;15.45;9.80;;;3.60;99.90;;;;;;5035193;28;20188;-90
2022/04/05 00:57:14;;;;;;;20.80;11.68;;;3.60;99.90;;;;;;5036583;28;20187;-89
2022/04/05 00:59:42;;;;;;;12.00;7.47;;;3.60;99.90;;;;;;5035039;28;20556;-91
2022/04/05 01:02:18;;;;;;;19.65;10.23;;;3.50;99.90;;;;;;5037046;28;20194;-91
2022/04/05 01:04:45;;;;;;;9.18;6.07;;;3.50;99.90;;;;;;5034330;28;20222;-91
2022/04/05 01:07:14;;;;;;;21.55;10.70;;;3.50;99.90;;;;;;5035395;28;20234;-89
2022/04/05 01:09:40;;;;;;;16.23;9.57;;;3.50;99.90;;;;;;5035803;28;20187;-89
2022/04/05 01:12:08;;;;;;;13.15;9.20;;;3.50;99.90;;;;;;5047404;28;20185;-90
2022/04/05 01:14:34;;;;;;;12.20;7.43;;;3.50;99.90;;;;;;5048819;28;20658;-90
2022/04/05 01:17:01;;;;;;;10.13;7.10;;;3.50;99.90;;;;;;5019468;28;20227;-90
2022/04/05 01:19:27;;;;;;;24.38;10.85;;;3.40;99.90;;;;;;5017740;28;20186;-91
2022/04/05 01:21:53;;;;;;;17.52;8.25;;;3.40;99.90;;;;;;5014096;28;20199;-90
2022/04/05 01:24:18;;;;;;;17.13;10.43;;;3.40;99.90;;;;;;5015521;28;20270;-90
2022/04/05 01:26:50;;;;;;;10.37;6.43;;;3.40;99.90;;;;;;5030362;28;20421;-91
2022/04/05 01:29:17;;;;;;;17.90;11.40;;;3.40;99.90;;;;;;5013921;28;20625;-90
2022/04/05 01:31:48;;;;;;;23.45;10.23;;;3.40;99.90;;;;;;5014273;28;20183;-91
2022/04/05 01:34:16;;;;;;;20.33;11.35;;;3.30;99.90;;;;;;5014762;28;20246;-89
2022/04/05 01:36:45;;;;;;;22.52;11.15;;;3.30;99.90;;;;;;5015343;28;20633;-90
2022/04/05 01:39:11;;;;;;;16.38;9.70;;;3.30;99.90;;;;;;5016868;28;20171;-90
2022/04/05 01:41:37;;;;;;;18.55;10.48;;;3.30;99.90;;;;;;5015664;28;20186;-90
2022/04/05 01:44:05;;;;;;;20.53;11.00;;;3.30;99.90;;;;;;5016169;28;20211;-90
2022/04/05 01:46:34;;;;;;;15.05;10.38;;;3.20;99.90;;;;;;5015430;28;20191;-89
2022/04/05 01:49:00;;;;;;;23.25;11.77;;;3.20;99.90;;;;;;5018047;28;20557;-90
2022/04/05 01:51:27;;;;;;;18.87;10.80;;;3.20;99.90;;;;;;5020229;28;20176;-90
2022/04/05 01:53:57;;;;;;;18.80;11.82;;;3.20;99.90;;;;;;5018372;28;20414;-90
2022/04/05 01:56:23;;;;;;;19.52;12.23;;;3.20;99.90;;;;;;5022267;28;20302;-90
2022/04/05 01:58:49;;;;;;;17.97;12.37;;;3.20;99.90;;;;;;5034716;28;20678;-91
2022/04/05 02:01:15;;;;;;;24.58;13.32;;;3.20;99.90;;;;;;5019352;28;20167;-91
2022/04/05 02:03:41;;;;;;;22.13;13.43;;;3.20;99.90;;;;;;5017532;28;20665;-90
2022/04/05 02:06:08;;;;;;;22.10;12.50;;;3.20;99.90;;;;;;5021614;28;20738;-88
2022/04/05 02:08:33;;;;;;;20.08;12.10;;;3.20;99.90;;;;;;5025132;28;20293;-89
2022/04/05 02:11:00;;;;;;;20.87;11.93;;;3.20;99.90;;;;;;5027196;28;20225;-90
2022/04/05 02:13:26;;;;;;;20.27;10.88;;;3.20;99.90;;;;;;5040130;28;20241;-90
2022/04/05 02:15:52;;;;;;;18.77;12.70;;;3.20;99.90;;;;;;5025627;28;20543;-89
2022/04/05 02:18:17;;;;;;;21.43;11.93;;;3.20;99.90;;;;;;5056713;28;20198;-90
2022/04/05 02:20:44;;;;;;;19.90;12.83;;;3.20;99.90;;;;;;5039336;28;20445;-90
2022/04/05 02:23:10;;;;;;;21.30;12.68;;;3.20;99.90;;;;;;5039144;28;20675;-89
2022/04/05 02:25:35;;;;;;;24.47;11.13;;;3.20;99.90;;;;;;5039913;28;20267;-88
2022/04/05 02:28:02;;;;;;;24.53;13.93;;;3.20;99.90;;;;;;5039470;28;20210;-91
2022/04/05 02:30:28;;;;;;;24.70;15.68;;;3.20;99.90;;;;;;5042520;28;20185;-89
2022/04/05 02:32:53;;;;;;;23.20;15.53;;;3.20;99.90;;;;;;5040224;28;20198;-89
2022/04/05 02:35:19;;;;;;;24.73;15.13;;;3.20;99.90;;;;;;5056598;28;20232;-90
2022/04/05 02:37:45;;;;;;;31.50;15.60;;;3.20;99.90;;;;;;5040673;28;20253;-89
2022/04/05 02:40:11;;;;;;;31.23;15.30;;;3.20;99.90;;;;;;5044206;28;20231;-89
2022/04/05 02:42:39;;;;;;;30.90;16.52;;;3.20;99.90;;;;;;5057686;28;20198;-90
2022/04/05 02:45:05;;;;;;;24.95;14.32;;;3.20;99.90;;;;;;5057851;28;20220;-91
2022/04/05 02:47:31;;;;;;;25.48;14.90;;;3.20;99.90;;;;;;5040331;28;20228;-90
2022/04/05 02:49:57;;;;;;;29.33;14.93;;;3.20;99.90;;;;;;5057800;28;20178;-89
2022/04/05 02:52:23;;;;;;;23.43;14.03;;;3.20;99.90;;;;;;5058355;28;20217;-91
2022/04/05 02:54:48;;;;;;;26.57;14.20;;;3.20;99.90;;;;;;5042321;28;20174;-90
2022/04/05 02:57:18;;;;;;;20.37;12.67;;;3.20;99.90;;;;;;5058962;28;20423;-90
2022/04/05 02:59:44;;;;;;;22.98;13.18;;;3.10;99.90;;;;;;5039884;28;20174;-90
2022/04/05 03:02:10;;;;;;;21.83;12.10;;;3.10;99.90;;;;;;5041074;28;20201;-90
2022/04/05 03:04:36;;;;;;;17.10;12.50;;;3.10;99.90;;;;;;5058068;28;20469;-90
2022/04/05 03:07:02;;;;;;;22.65;13.55;;;3.10;99.90;;;;;;5037102;28;20304;-90
2022/04/05 03:09:28;;;;;;;21.95;13.10;;;3.00;99.90;;;;;;5039853;28;20181;-90
2022/04/05 03:11:55;;;;;;;25.13;13.93;;;3.00;99.90;;;;;;5050236;28;20572;-89
2022/04/05 03:14:21;;;;;;;29.67;15.10;;;2.90;99.90;;;;;;5036241;28;20217;-90
2022/04/05 03:16:47;;;;;;;24.98;13.90;;;2.90;99.90;;;;;;5034336;28;20540;-90
2022/04/05 03:19:13;;;;;;;27.00;12.60;;;2.90;99.90;;;;;;5019218;28;20175;-91
2022/04/05 03:21:38;;;;;;;19.67;11.80;;;2.90;99.90;;;;;;5028540;28;20888;-89
2022/04/05 03:24:04;;;;;;;30.50;13.13;;;2.90;99.90;;;;;;5015489;28;20702;-90
2022/04/05 03:26:30;;;;;;;27.40;15.68;;;2.90;99.90;;;;;;5015205;28;20195;-91
2022/04/05 03:28:57;;;;;;;69.17;27.33;;;2.90;99.90;;;;;;5016254;28;20182;-90
2022/04/05 03:31:23;;;;;;;30.33;16.70;;;2.90;99.90;;;;;;5032491;28;20190;-90
2022/04/05 03:33:49;;;;;;;23.92;14.00;;;3.00;99.90;;;;;;5016803;28;20187;-90
2022/04/05 03:36:14;;;;;;;27.07;15.20;;;3.00;99.90;;;;;;5016124;28;20274;-91
2022/04/05 03:38:40;;;;;;;23.27;13.60;;;3.00;99.90;;;;;;5017461;28;20450;-90
2022/04/05 03:41:06;;;;;;;25.35;13.82;;;3.00;99.90;;;;;;5015864;28;20179;-90
2022/04/05 03:43:32;;;;;;;27.90;16.27;;;3.00;99.90;;;;;;5015365;28;20233;-91
2022/04/05 03:45:58;;;;;;;22.80;14.50;;;3.00;99.90;;;;;;5031814;28;20476;-91
2022/04/05 03:48:26;;;;;;;25.60;15.57;;;3.00;99.90;;;;;;5016357;28;20213;-91
2022/04/05 03:50:52;;;;;;;25.10;14.48;;;3.00;99.90;;;;;;5018510;28;20701;-92
2022/04/05 03:53:18;;;;;;;28.97;14.93;;;3.00;99.90;;;;;;5017154;28;20237;-92
2022/04/05 03:55:44;;;;;;;27.23;15.80;;;3.00;99.90;;;;;;5016708;28;20905;-90
2022/04/05 03:58:12;;;;;;;27.88;17.00;;;3.00;99.90;;;;;;5015653;28;20429;-90
2022/04/05 04:00:38;;;;;;;25.30;15.45;;;3.00;99.90;;;;;;5017341;28;20190;-90
2022/04/05 04:03:04;;;;;;;29.65;16.70;;;3.00;99.90;;;;;;5016543;28;20638;-90
2022/04/05 04:05:30;;;;;;;27.40;12.83;;;3.00;99.90;;;;;;5016019;28;20239;-90
2022/04/05 04:07:55;;;;;;;29.47;14.77;;;3.00;99.90;;;;;;5032093;28;20275;-90
2022/04/05 04:10:21;;;;;;;28.20;16.50;;;3.00;99.90;;;;;;5016334;28;20179;-90
2022/04/05 04:12:47;;;;;;;28.20;17.37;;;3.00;99.90;;;;;;5018839;28;20248;-89
2022/04/05 04:15:13;;;;;;;31.47;17.33;;;3.00;99.90;;;;;;5028276;28;20191;-90
2022/04/05 04:17:39;;;;;;;25.47;15.53;;;3.00;99.90;;;;;;5031477;28;20794;-91
2022/04/05 04:20:06;;;;;;;32.30;17.87;;;3.00;99.90;;;;;;5003304;28;20191;-91
2022/04/05 04:22:31;;;;;;;31.73;15.45;;;2.90;99.90;;;;;;5001209;28;20443;-90
2022/04/05 04:24:57;;;;;;;22.90;13.50;;;2.90;99.90;;;;;;4996506;28;20673;-89
2022/04/05 04:27:24;;;;;;;23.50;14.90;;;2.90;99.90;;;;;;4997234;28;20184;-91
2022/04/05 04:29:50;;;;;;;28.35;15.85;;;2.80;99.90;;;;;;5009368;28;20423;-89
2022/04/05 04:32:16;;;;;;;27.20;15.00;;;2.80;99.90;;;;;;5016702;28;20202;-89
2022/04/05 04:34:41;;;;;;;26.67;16.13;;;2.90;99.90;;;;;;5016451;28;20433;-90
2022/04/05 04:37:07;;;;;;;25.60;13.30;;;2.90;99.90;;;;;;5016056;28;20203;-91
2022/04/05 04:39:33;;;;;;;26.67;13.83;;;2.80;99.90;;;;;;5015164;28;20182;-91
2022/04/05 04:41:59;;;;;;;30.90;17.00;;;2.80;99.90;;;;;;5014480;28;20265;-91
2022/04/05 04:44:26;;;;;;;52.40;22.83;;;2.80;99.90;;;;;;4998707;28;20211;-89
2022/04/05 04:46:51;;;;;;;31.17;18.60;;;2.70;99.90;;;;;;4996687;28;20196;-90
2022/04/05 04:49:17;;;;;;;27.43;15.00;;;2.70;99.90;;;;;;4994711;28;20226;-91
2022/04/05 04:51:43;;;;;;;24.10;14.57;;;2.70;99.90;;;;;;4999795;28;20399;-90
2022/04/05 04:54:09;;;;;;;35.80;18.50;;;2.70;99.90;;;;;;5003282;28;20183;-90
2022/04/05 04:56:35;;;;;;;38.73;21.10;;;2.70;99.90;;;;;;4998141;28;20195;-91
2022/04/05 04:59:00;;;;;;;31.77;18.93;;;2.70;99.90;;;;;;5004544;28;20577;-91
2022/04/05 05:01:26;;;;;;;32.07;17.80;;;2.70;99.90;;;;;;5004778;28;20176;-90
2022/04/05 05:03:52;;;;;;;31.43;18.13;;;2.80;99.90;;;;;;4998970;28;20201;-90
2022/04/05 05:06:18;;;;;;;48.45;26.35;;;2.80;99.90;;;;;;5015552;28;20583;-91
2022/04/05 05:08:44;;;;;;;63.13;30.70;;;2.80;99.90;;;;;;5009373;28;20214;-90
2022/04/05 05:11:11;;;;;;;26.88;17.17;;;2.90;99.90;;;;;;4997757;28;20216;-90
2022/04/05 05:13:37;;;;;;;30.15;17.45;;;2.90;99.90;;;;;;4995862;28;20200;-89
2022/04/05 05:16:03;;;;;;;30.50;17.98;;;2.90;99.90;;;;;;5021653;28;20174;-90
2022/04/05 05:18:29;;;;;;;28.77;17.83;;;3.00;99.90;;;;;;5034443;28;20201;-91
2022/04/05 05:20:55;;;;;;;30.10;17.60;;;3.10;99.90;;;;;;5008322;28;20188;-91
2022/04/05 05:23:21;;;;;;;27.97;16.43;;;3.20;99.90;;;;;;5007188;28;20419;-91
2022/04/05 05:25:47;;;;;;;27.73;17.40;;;3.20;99.90;;;;;;4998944;28;20514;-91
2022/04/05 05:28:14;;;;;;;34.00;18.80;;;3.30;99.90;;;;;;4996966;28;20423;-90
2022/04/05 05:30:40;;;;;;;39.40;21.23;;;3.40;99.90;;;;;;5015863;28;20191;-90
2022/04/05 05:33:06;;;;;;;39.38;20.88;;;3.50;99.90;;;;;;5014230;28;20206;-90
2022/04/05 05:35:32;;;;;;;34.35;21.08;;;3.70;99.90;;;;;;5031943;28;20273;-91
2022/04/05 05:37:57;;;;;;;30.20;18.95;;;3.80;99.90;;;;;;5017580;28;20295;-90
2022/04/05 05:40:23;;;;;;;32.47;19.57;;;3.90;99.90;;;;;;5009688;28;20191;-89
2022/04/05 05:42:57;;;;;;;32.57;17.50;;;4.00;99.90;;;;;;5007078;28;20502;-90
2022/04/05 05:45:24;;;;;;;31.55;18.30;;;4.20;99.90;;;;;;5017170;28;20252;-89
2022/04/05 05:47:50;;;;;;;24.35;15.93;;;4.30;99.90;;;;;;5009549;28;20214;-90
2022/04/05 05:50:18;;;;;;;27.70;15.45;;;4.40;99.90;;;;;;5004331;28;20215;-90
2022/04/05 05:52:44;;;;;;;24.15;16.08;;;4.50;99.90;;;;;;4998174;28;20225;-90
2022/04/05 05:55:11;;;;;;;25.48;16.50;;;4.60;99.90;;;;;;5023559;28;20202;-91
2022/04/05 05:57:38;;;;;;;20.75;13.30;;;4.80;99.90;;;;;;4996375;28;20251;-91
2022/04/05 06:00:09;;;;;;;24.23;15.18;;;4.90;99.90;;;;;;5014339;28;20182;-91
2022/04/05 06:02:41;;;;;;;27.92;14.50;;;5.00;99.90;;;;;;5021752;28;20209;-91
2022/04/05 06:05:08;;;;;;;23.75;15.38;;;5.10;99.90;;;;;;5006980;28;20248;-89
2022/04/05 06:07:34;;;;;;;22.40;14.55;;;5.20;99.90;;;;;;5004577;28;20294;-91
2022/04/05 06:10:04;;;;;;;24.83;13.73;;;5.40;99.90;;;;;;5017135;28;20194;-90
2022/04/05 06:12:30;;;;;;;21.70;13.77;;;5.50;99.90;;;;;;5011225;28;20203;-89
2022/04/05 06:14:56;;;;;;;23.02;13.57;;;5.60;99.90;;;;;;5016891;28;20555;-90
2022/04/05 06:17:22;;;;;;;17.50;12.73;;;5.70;99.90;;;;;;5028788;28;20206;-90
2022/04/05 06:19:48;;;;;;;22.97;13.63;;;5.90;99.90;;;;;;5003863;28;20441;-91
2022/04/05 06:22:13;;;;;;;20.60;12.70;;;6.00;99.90;;;;;;5028405;28;20494;-90
2022/04/05 06:24:39;;;;;;;20.37;13.23;;;6.10;99.90;;;;;;5009348;28;20258;-90
2022/04/05 06:27:05;;;;;;;19.97;12.23;;;6.30;99.90;;;;;;5034264;28;20455;-90
2022/04/05 06:29:32;;;;;;;15.47;10.03;;;6.50;99.90;;;;;;5004959;28;20536;-90
2022/04/05 06:31:57;;;;;;;14.85;9.57;;;6.60;99.90;;;;;;5006085;28;20507;-90
2022/04/05 06:34:25;;;;;;;17.23;10.77;;;6.80;99.90;;;;;;5003560;28;20976;-91
2022/04/05 06:36:51;;;;;;;14.15;9.82;;;7.00;99.90;;;;;;5012394;28;20458;-90
2022/04/05 06:39:17;;;;;;;11.30;8.27;;;7.10;99.90;;;;;;5008971;28;20190;-89
2022/04/05 06:41:43;;;;;;;15.60;9.70;;;7.30;99.90;;;;;;5011580;28;20190;-91
2022/04/05 06:44:08;;;;;;;12.97;8.07;;;7.40;99.90;;;;;;5010820;28;20223;-90
2022/04/05 06:46:34;;;;;;;12.63;8.30;;;7.60;99.90;;;;;;4996046;28;20800;-90
2022/04/05 06:49:00;;;;;;;10.30;7.77;;;7.70;99.90;;;;;;5001832;28;20187;-90
2022/04/05 06:51:26;;;;;;;9.60;7.30;;;7.80;99.90;;;;;;4995853;28;20463;-91
2022/04/05 06:53:52;;;;;;;10.63;7.90;;;8.00;99.90;;;;;;4994670;28;20211;-91
2022/04/05 06:56:21;;;;;;;9.13;6.72;;;8.20;99.90;;;;;;4996397;28;20187;-92
2022/04/05 06:58:48;;;;;;;10.77;8.00;;;8.30;99.90;;;;;;5000405;28;20215;-91
2022/04/05 07:01:14;;;;;;;13.10;8.07;;;8.50;99.90;;;;;;4996552;28;20214;-91
2022/04/05 07:03:40;;;;;;;13.20;7.73;;;8.60;99.90;;;;;;4990915;28;20207;-90
2022/04/05 07:06:06;;;;;;;11.33;7.97;;;8.70;99.90;;;;;;5008174;28;20489;-91
2022/04/05 07:08:31;;;;;;;7.73;6.43;;;8.80;99.90;;;;;;5024572;28;20792;-91
2022/04/05 07:10:57;;;;;;;11.20;7.00;;;9.00;99.90;;;;;;5007073;28;20471;-91
2022/04/05 07:13:23;;;;;;;9.43;6.27;;;9.10;99.90;;;;;;5022345;28;20676;-91
2022/04/05 07:15:48;;;;;;;9.03;5.53;;;9.20;99.90;;;;;;5009030;28;20215;-91
2022/04/05 07:18:14;;;;;;;9.33;6.17;;;9.40;99.90;;;;;;5027585;28;20210;-90
2022/04/05 07:20:40;;;;;;;6.67;4.93;;;9.50;99.90;;;;;;5014228;28;20182;-91
2022/04/05 07:23:06;;;;;;;7.80;6.43;;;9.70;99.90;;;;;;5025812;28;20475;-90
2022/04/05 07:25:34;;;;;;;8.03;6.00;;;9.80;99.90;;;;;;5027664;28;20246;-89
2022/04/05 07:28:03;;;;;;;9.15;5.45;;;9.90;99.90;;;;;;5028871;28;20444;-90
2022/04/05 07:30:29;;;;;;;7.28;4.85;;;9.90;99.90;;;;;;5016724;28;20214;-94
2022/04/05 07:32:55;;;;;;;5.63;5.10;;;10.10;99.90;;;;;;5019087;28;20237;-89
2022/04/05 07:35:21;;;;;;;6.77;5.13;;;10.10;99.90;;;;;;5003685;28;20479;-89
2022/04/05 07:37:47;;;;;;;9.37;4.53;;;10.20;99.90;;;;;;5011073;28;20804;-89
2022/04/05 07:40:14;;;;;;;4.30;3.90;;;10.30;99.90;;;;;;5013152;28;20448;-94
2022/04/05 07:42:44;;;;;;;4.00;3.53;;;10.40;99.90;;;;;;5008258;28;20202;-94
2022/04/05 07:45:12;;;;;;;4.00;3.60;;;10.50;99.90;;;;;;5019148;28;20636;-89
2022/04/05 07:47:38;;;;;;;10.38;3.95;;;10.50;99.90;;;;;;5021653;28;20218;-89
2022/04/05 07:50:05;;;;;;;4.03;3.38;;;10.70;99.90;;;;;;5026009;28;20541;-88
2022/04/05 07:52:31;;;;;;;5.13;4.20;;;10.80;99.90;;;;;;5009377;28;20206;-88
2022/04/05 07:54:57;;;;;;;6.07;4.97;;;10.80;99.90;;;;;;5012037;28;20203;-88
2022/04/05 07:57:23;;;;;;;7.30;4.80;;;11.00;99.90;;;;;;5034098;28;20276;-93
2022/04/05 07:59:48;;;;;;;7.63;5.07;;;11.10;99.90;;;;;;5034887;28;20194;-93
2022/04/05 08:02:14;;;;;;;25.10;15.10;;;11.30;99.90;;;;;;5006249;28;20999;-94
2022/04/05 08:04:39;;;;;;;25.23;13.57;;;11.40;99.90;;;;;;5015881;28;20226;-88
2022/04/05 08:07:06;;;;;;;10.80;7.80;;;11.50;99.90;;;;;;5005784;28;20294;-93
2022/04/05 08:09:32;;;;;;;23.65;14.10;;;11.60;99.90;;;;;;4994782;28;20203;-93
2022/04/05 08:11:58;;;;;;;11.50;8.45;;;11.70;99.90;;;;;;5003199;28;20267;-93
2022/04/05 08:14:27;;;;;;;5.70;4.87;;;11.80;99.90;;;;;;5012551;28;20217;-87
2022/04/05 08:16:56;;;;;;;6.28;5.35;;;11.90;99.90;;;;;;5020405;28;20287;-88
2022/04/05 08:19:22;;;;;;;8.32;5.82;;;12.00;99.90;;;;;;5008207;28;20679;-93
2022/04/05 08:21:48;;;;;;;5.95;4.97;;;12.00;99.90;;;;;;5006000;28;20183;-94
2022/04/05 08:24:14;;;;;;;5.75;4.75;;;12.20;99.90;;;;;;5001893;28;20214;-87
2022/04/05 08:26:40;;;;;;;6.70;6.00;;;12.30;99.90;;;;;;5005794;28;20259;-94
2022/04/05 08:29:06;;;;;;;6.50;5.67;;;12.40;99.90;;;;;;5006058;28;20186;-87
2022/04/05 08:31:32;;;;;;;8.97;5.73;;;12.40;99.90;;;;;;5003339;28;20448;-93
2022/04/05 08:34:00;;;;;;;6.10;5.50;;;12.60;99.90;;;;;;5014016;28;20179;-93
2022/04/05 08:36:26;;;;;;;8.67;5.70;;;12.70;99.90;;;;;;5023905;28;20539;-93
2022/04/05 08:38:51;;;;;;;6.40;5.80;;;12.80;99.90;;;;;;5025650;28;21087;-92
2022/04/05 08:41:20;;;;;;;6.67;5.80;;;13.20;99.90;;;;;;5008130;28;20440;-88
2022/04/05 08:43:49;;;;;;;7.67;5.80;;;13.80;99.90;;;;;;4998321;28;20434;-94
2022/04/05 08:46:17;;;;;;;6.20;5.57;;;14.50;99.90;;;;;;5009077;28;20483;-94
2022/04/05 08:48:46;;;;;;;10.60;8.10;;;15.50;99.70;;;;;;5005903;28;20890;-94
2022/04/05 08:51:13;;;;;;;10.70;7.73;;;16.50;97.40;;;;;;5008378;28;20466;-93
2022/04/05 08:53:40;;;;;;;5.43;4.93;;;17.30;95.80;;;;;;5011931;28;20816;-89
2022/04/05 08:56:06;;;;;;;5.87;5.20;;;17.90;94.80;;;;;;4999385;28;20440;-89
2022/04/05 08:58:32;;;;;;;6.60;5.40;;;18.30;92.40;;;;;;5006778;28;20447;-88
2022/04/05 09:00:57;;;;;;;5.90;5.30;;;18.70;90.70;;;;;;5006540;28;20179;-94
2022/04/05 09:03:24;;;;;;;5.47;4.60;;;18.90;87.60;;;;;;5001969;28;20206;-88
2022/04/05 09:05:50;;;;;;;4.80;3.87;;;19.10;88.40;;;;;;5032195;28;20541;-94
2022/04/05 09:08:28;;;;;;;5.90;4.87;;;19.20;88.80;;;;;;5022058;28;20456;-93
2022/04/05 09:11:03;;;;;;;5.87;5.20;;;19.10;86.50;;;;;;5024444;28;20441;-88
2022/04/05 09:13:29;;;;;;;7.40;5.03;;;19.10;85.20;;;;;;5021284;28;20460;-88
2022/04/05 09:15:59;;;;;;;5.53;4.83;;;19.10;83.40;;;;;;5011427;28;20451;-88
2022/04/05 09:18:32;;;;;;;8.43;6.07;;;19.10;85.30;;;;;;5014791;28;20440;-89
2022/04/05 09:20:58;;;;;;;5.80;5.20;;;19.10;84.10;;;;;;5026558;28;20438;-89
2022/04/05 09:23:31;;;;;;;5.57;5.07;;;19.10;82.90;;;;;;5013741;28;20457;-90
2022/04/05 09:26:01;;;;;;;5.57;5.00;;;19.00;81.40;;;;;;5032347;28;20487;-91
2022/04/05 09:28:33;;;;;;;7.47;5.03;;;18.90;80.90;;;;;;5016355;28;20495;-89
2022/04/05 09:31:03;;;;;;;5.20;4.70;;;18.80;81.50;;;;;;5024107;28;20429;-96
2022/04/05 09:33:31;;;;;;;5.90;5.40;;;18.80;81.10;;;;;;5023548;28;20443;-96
2022/04/05 09:36:15;;;;;;;6.80;5.53;;;18.70;82.10;;;;;;5019189;28;20439;-90
2022/04/05 09:38:44;;;;;;;11.00;6.20;;;18.50;81.40;;;;;;5014060;28;20448;-96
2022/04/05 09:41:22;;;;;;;7.00;5.60;;;18.30;83.00;;;;;;5018415;28;20503;-96
2022/04/05 09:44:00;;;;;;;5.80;5.13;;;18.00;82.50;;;;;;5028290;28;20458;-94
2022/04/05 09:46:30;;;;;;;11.77;7.57;;;17.80;83.60;;;;;;5023011;28;20449;-91
2022/04/05 09:49:12;;;;;;;174.67;66.23;;;17.40;82.60;;;;;;5019342;28;20420;-95
2022/04/05 09:51:42;;;;;;;16.97;9.87;;;17.00;83.20;;;;;;5012197;28;20507;-95
2022/04/05 09:54:17;;;;;;;17.47;12.90;;;16.80;83.40;;;;;;5024142;28;20479;-96
2022/04/05 09:56:44;;;;;;;8.80;7.20;;;16.60;84.40;;;;;;5031979;28;20474;-89
2022/04/05 09:59:18;;;;;;;7.00;5.80;;;16.50;84.30;;;;;;5032458;28;20444;-89
2022/04/05 10:01:51;;;;;;;6.77;5.80;;;16.40;84.90;;;;;;5044361;28;20443;-96
2022/04/05 10:04:18;;;;;;;7.10;5.80;;;16.30;86.10;;;;;;5031256;28;20458;-96
2022/04/05 10:06:49;;;;;;;6.93;6.07;;;16.20;86.10;;;;;;5013974;28;20460;-89
2022/04/05 10:09:17;;;;;;;7.50;5.50;;;16.20;86.10;;;;;;5009953;28;20444;-96
2022/04/05 10:11:44;;;;;;;8.37;7.47;;;16.20;86.50;;;;;;5014635;28;20429;-89
2022/04/05 10:14:12;;;;;;;7.13;6.43;;;16.30;87.50;;;;;;5013270;28;20954;-90
2022/04/05 10:16:38;;;;;;;6.30;5.67;;;16.30;85.50;;;;;;5028889;28;20484;-96
2022/04/05 10:19:11;;;;;;;7.80;6.30;;;16.20;85.70;;;;;;5019200;28;20966;-96
2022/04/05 10:21:41;;;;;;;8.30;6.27;;;16.00;86.30;;;;;;5020842;28;20449;-96
2022/04/05 10:24:08;;;;;;;10.13;6.00;;;16.00;86.50;;;;;;5013430;28;20464;-90
2022/04/05 10:26:42;;;;;;;7.10;6.40;;;15.90;87.20;;;;;;5008378;28;20475;-90
2022/04/05 10:29:10;;;;;;;7.60;6.80;;;15.90;88.10;;;;;;5010293;28;20417;-91
2022/04/05 10:31:42;;;;;;;7.93;6.20;;;15.90;88.00;;;;;;5011020;28;20436;-96
2022/04/05 10:34:30;;;;;;;8.60;7.43;;;15.80;87.40;;;;;;5026366;28;20433;-90
2022/04/05 10:37:36;;;;;;;8.67;7.53;;;15.80;88.80;;;;;;5004968;28;20453;-96
2022/04/05 10:40:02;;;;;;;6.87;6.17;;;15.60;89.50;;;;;;5007367;28;20847;-90
2022/04/05 10:42:40;;;;;;;7.13;5.57;;;15.50;88.30;;;;;;5007565;28;20454;-96
2022/04/05 10:45:15;;;;;;;6.57;5.23;;;15.60;89.70;;;;;;5020424;28;20214;-90
2022/04/05 10:48:13;;;;;;;7.63;5.87;;;15.60;90.00;;;;;;5028999;28;20479;-96
2022/04/05 10:50:59;;;;;;;8.07;7.17;;;15.70;88.70;;;;;;5006049;28;20471;-90
2022/04/05 10:54:17;;;;;;;7.97;6.03;;;15.70;89.30;;;;;;5008416;28;20476;-95
2022/04/05 10:56:26;;;;;;;6.67;5.40;;;15.80;89.00;;;;;;5009008;28;20527;-95
2022/04/05 10:58:55;;;;;;;7.60;6.80;;;15.80;87.80;;;;;;5018223;28;20507;-89
2022/04/05 11:01:35;;;;;;;7.77;5.90;;;15.90;88.10;;;;;;5001237;28;20562;-90
2022/04/05 11:04:17;;;;;;;12.03;6.70;;;16.10;87.70;;;;;;5006932;28;20444;-90
2022/04/05 11:06:58;;;;;;;6.30;5.50;;;16.10;86.80;;;;;;5033427;28;20471;-91
2022/04/05 11:09:25;;;;;;;6.30;5.70;;;16.20;88.50;;;;;;5009482;28;20521;-95
2022/04/05 11:11:53;;;;;;;6.27;5.63;;;16.30;87.60;;;;;;5024677;28;20487;-90
2022/04/05 11:14:42;;;;;;;7.67;6.30;;;16.40;86.60;;;;;;5017518;28;20491;-95
2022/04/05 11:17:10;;;;;;;7.93;6.03;;;16.50;86.60;;;;;;5015695;28;20486;-96
2022/04/05 11:19:38;;;;;;;7.73;6.60;;;16.40;87.90;;;;;;5008494;28;20481;-95
2022/04/05 11:22:27;;;;;;;7.60;6.80;;;16.40;87.30;;;;;;5031118;28;20454;-95
2022/04/05 11:24:55;;;;;;;6.00;5.40;;;16.40;87.00;;;;;;4999888;28;20574;-95
2022/04/05 11:27:25;;;;;;;5.87;5.23;;;16.30;87.50;;;;;;5033345;28;20449;-90
2022/04/05 11:30:26;;;;;;;7.00;6.20;;;16.10;88.10;;;;;;5041769;28;20458;-91
2022/04/05 11:33:14;;;;;;;7.47;6.20;;;16.10;88.90;;;;;;5029784;28;20442;-95
2022/04/05 11:35:42;;;;;;;6.60;5.73;;;16.20;87.50;;;;;;5028804;28;20456;-91
2022/04/05 11:38:18;;;;;;;8.23;6.90;;;16.30;88.50;;;;;;5028702;28;20989;-90
2022/04/05 11:40:55;;;;;;;7.13;5.87;;;16.20;88.70;;;;;;5017644;28;20439;-90
2022/04/05 11:43:24;;;;;;;5.30;4.80;;;16.10;88.60;;;;;;5010988;28;20450;-90
2022/04/05 11:46:09;;;;;;;7.20;6.27;;;16.10;89.30;;;;;;5019054;28;20482;-90
2022/04/05 11:48:40;;;;;;;6.33;5.53;;;16.10;88.60;;;;;;5027533;28;20823;-90
2022/04/05 11:51:09;;;;;;;8.00;6.73;;;16.20;89.10;;;;;;5004379;28;20428;-90
2022/04/05 11:53:36;;;;;;;6.30;5.70;;;16.40;89.30;;;;;;5023691;28;20456;-90
2022/04/05 11:56:17;;;;;;;7.13;5.30;;;16.50;89.30;;;;;;5002829;28;20440;-88
2022/04/05 11:58:53;;;;;;;5.50;5.00;;;16.70;85.80;;;;;;5008070;28;20455;-89
2022/04/05 12:01:26;;;;;;;5.67;4.90;;;16.80;84.50;;;;;;5023034;28;20436;-89
2022/04/05 12:03:56;;;;;;;6.13;5.43;;;16.80;85.10;;;;;;5012730;28;20474;-89
2022/04/05 12:06:26;;;;;;;7.27;5.27;;;16.80;86.50;;;;;;5008913;28;20484;-89
2022/04/05 12:08:54;;;;;;;6.63;4.90;;;16.90;85.60;;;;;;5004763;28;20443;-94
2022/04/05 12:11:21;;;;;;;6.23;5.13;;;16.90;87.00;;;;;;5007551;28;21044;-89
2022/04/05 12:13:58;;;;;;;8.47;5.33;;;17.00;86.20;;;;;;5006848;28;20456;-90
2022/04/05 12:16:29;;;;;;;5.87;5.13;;;17.10;87.50;;;;;;5002720;28;20519;-89
2022/04/05 12:18:57;;;;;;;5.80;5.20;;;17.20;86.00;;;;;;5008666;28;20428;-94
2022/04/05 12:21:27;;;;;;;6.00;5.40;;;17.20;83.60;;;;;;5016189;28;20432;-88
2022/04/05 12:23:55;;;;;;;7.00;5.27;;;17.20;85.10;;;;;;5022447;28;20867;-93
2022/04/05 12:26:24;;;;;;;6.57;5.40;;;17.20;86.30;;;;;;5004598;28;20504;-94
2022/04/05 12:29:13;;;;;;;7.20;5.93;;;17.20;85.50;;;;;;5003616;28;20451;-93
2022/04/05 12:31:38;;;;;;;5.07;4.47;;;17.10;84.90;;;;;;5003134;28;20441;-94
2022/04/05 12:34:13;;;;;;;5.33;4.60;;;17.10;83.30;;;;;;5018740;28;21039;-93
2022/04/05 12:36:54;;;;;;;5.30;4.80;;;17.00;84.10;;;;;;5001618;28;20183;-88
2022/04/05 12:39:26;;;;;;;6.70;4.30;;;17.00;85.60;;;;;;5002972;28;20430;-93
2022/04/05 12:42:00;;;;;;;6.30;5.00;;;17.00;83.50;;;;;;5019504;28;20613;-93
2022/04/05 12:44:31;;;;;;;10.70;6.53;;;16.90;84.00;;;;;;5005955;28;20533;-89
2022/04/05 12:47:07;;;;;;;7.83;5.90;;;17.00;84.40;;;;;;5005305;28;20510;-94
2022/04/05 12:49:38;;;;;;;7.23;5.50;;;17.00;85.10;;;;;;5007846;28;20557;-89